createdAt,value
2023-04-30T00:00:39.408Z,2.20
2023-04-30T00:03:07.960Z,2.35
2023-04-30T00:05:37.362Z,2.10
2023-04-30T00:08:05.679Z,2.17
2023-04-30T00:10:33.930Z,1.90
2023-04-30T00:13:01.639Z,2.20
2023-04-30T00:15:29.284Z,2.22
2023-04-30T00:17:57.332Z,2.10
2023-04-30T00:20:25.010Z,1.90
2023-04-30T00:22:54.008Z,2.25
2023-04-30T00:25:25.731Z,2.25
2023-04-30T00:27:53.463Z,2.30
2023-04-30T00:30:21.476Z,2.20
2023-04-30T00:32:49.235Z,1.85
2023-04-30T00:35:17.134Z,2.03
2023-04-30T00:37:45.126Z,1.83
2023-04-30T00:40:14.645Z,1.90
2023-04-30T00:42:42.266Z,2.13
2023-04-30T00:45:12.944Z,2.03
2023-04-30T00:50:10.483Z,2.50
2023-04-30T00:52:38.241Z,2.80
2023-04-30T00:55:06.774Z,2.53
2023-04-30T00:57:37.540Z,2.05
2023-04-30T01:00:06.314Z,2.70
2023-04-30T01:02:34.574Z,2.60
2023-04-30T01:05:04.061Z,2.80
2023-04-30T01:07:32.367Z,2.90
2023-04-30T01:10:01.013Z,2.42
2023-04-30T01:12:42.937Z,2.17
2023-04-30T01:15:18.381Z,2.15
2023-04-30T01:17:55.665Z,2.25
2023-04-30T01:20:25.530Z,2.42
2023-04-30T01:22:58.591Z,2.90
2023-04-30T01:26:09.167Z,3.38
2023-04-30T01:28:40.117Z,2.78
2023-04-30T01:31:14.290Z,3.20
2023-04-30T01:33:42.166Z,2.65
2023-04-30T01:36:27.744Z,3.30
2023-04-30T01:39:16.625Z,4.68
2023-04-30T01:41:53.010Z,4.72
2023-04-30T01:44:44.159Z,4.38
2023-04-30T01:47:26.413Z,4.85
2023-04-30T01:50:03.805Z,3.10
2023-04-30T01:52:40.499Z,3.50
2023-04-30T01:55:13.286Z,3.00
2023-04-30T01:57:43.820Z,2.10
2023-04-30T02:02:42.903Z,3.40
2023-04-30T02:05:10.914Z,2.60
2023-04-30T02:07:42.583Z,2.60
2023-04-30T02:10:11.859Z,2.70
2023-04-30T02:12:40.142Z,2.40
2023-04-30T02:15:09.739Z,2.10
2023-04-30T02:17:38.834Z,2.50
2023-04-30T02:20:08.688Z,2.85
2023-04-30T02:22:36.794Z,2.25
2023-04-30T02:25:04.833Z,2.45
2023-04-30T02:27:34.531Z,2.58
2023-04-30T02:30:02.540Z,2.90
2023-04-30T02:32:30.937Z,2.33
2023-04-30T02:35:00.051Z,2.67
2023-04-30T02:37:28.225Z,2.47
2023-04-30T02:39:56.044Z,3.00
2023-04-30T02:42:24.495Z,3.47
2023-04-30T02:44:52.137Z,2.42
2023-04-30T02:47:19.800Z,2.40
2023-04-30T02:49:48.703Z,2.38
2023-04-30T02:52:18.201Z,2.45
2023-04-30T02:54:45.987Z,2.30
2023-04-30T02:57:14.027Z,3.03
2023-04-30T02:59:45.796Z,2.88
2023-04-30T03:02:13.642Z,2.97
2023-04-30T03:04:42.694Z,2.28
2023-04-30T03:07:10.693Z,3.03
2023-04-30T03:09:40.176Z,2.78
2023-04-30T03:12:07.899Z,2.67
2023-04-30T03:14:36.033Z,3.03
2023-04-30T03:17:03.674Z,2.60
2023-04-30T03:19:32.163Z,2.10
2023-04-30T03:22:00.039Z,2.67
2023-04-30T03:24:27.774Z,2.38
2023-04-30T03:26:57.927Z,2.85
2023-04-30T03:29:26.034Z,2.85
2023-04-30T03:31:53.818Z,2.88
2023-04-30T03:34:21.598Z,2.70
2023-04-30T03:36:49.737Z,2.70
2023-04-30T03:39:17.509Z,2.58
2023-04-30T03:41:45.234Z,2.40
2023-04-30T03:44:16.293Z,3.20
2023-04-30T03:46:44.212Z,3.10
2023-04-30T03:49:12.143Z,3.03
2023-04-30T03:51:42.764Z,3.45
2023-04-30T03:56:39.311Z,3.05
2023-04-30T03:59:07.224Z,2.72
2023-04-30T04:01:36.486Z,3.10
2023-04-30T04:04:04.840Z,3.00
2023-04-30T04:06:32.684Z,2.92
2023-04-30T04:09:00.554Z,3.20
2023-04-30T04:11:29.393Z,3.17
2023-04-30T04:13:57.110Z,3.20
2023-04-30T04:16:25.113Z,3.38
2023-04-30T04:18:54.491Z,4.05
2023-04-30T04:21:22.353Z,3.55
2023-04-30T04:23:50.684Z,3.40
2023-04-30T04:26:21.564Z,3.00
2023-04-30T04:28:49.752Z,2.95
2023-04-30T04:31:17.476Z,3.15
2023-04-30T04:33:46.010Z,2.97
2023-04-30T04:36:16.199Z,2.95
2023-04-30T04:38:44.250Z,2.97
2023-04-30T04:41:12.317Z,3.35
2023-04-30T04:43:40.008Z,3.92
2023-04-30T04:46:09.375Z,3.50
2023-04-30T04:48:39.095Z,3.30
2023-04-30T04:51:07.111Z,3.70
2023-04-30T04:53:36.873Z,3.65
2023-04-30T04:56:04.800Z,3.37
2023-04-30T04:58:32.851Z,3.75
2023-04-30T05:01:01.629Z,3.13
2023-04-30T05:03:29.823Z,3.55
2023-04-30T05:05:57.829Z,3.28
2023-04-30T05:08:26.960Z,3.85
2023-04-30T05:10:56.050Z,3.30
2023-04-30T05:13:23.875Z,3.00
2023-04-30T05:15:54.020Z,4.03
2023-04-30T05:18:21.784Z,3.40
2023-04-30T05:20:49.669Z,3.10
2023-04-30T05:23:17.892Z,3.38
2023-04-30T05:25:45.709Z,3.20
2023-04-30T05:28:14.756Z,3.10
2023-04-30T05:30:43.737Z,3.15
2023-04-30T05:33:11.738Z,3.80
2023-04-30T05:35:39.609Z,3.53
2023-04-30T05:38:07.673Z,3.58
2023-04-30T05:40:35.447Z,3.20
2023-04-30T05:43:03.108Z,3.25
2023-04-30T05:45:33.309Z,3.60
2023-04-30T05:48:02.343Z,3.95
2023-04-30T05:50:30.116Z,3.13
2023-04-30T05:52:58.230Z,4.28
2023-04-30T05:55:25.932Z,3.45
2023-04-30T05:57:53.555Z,3.47
2023-04-30T06:00:21.886Z,3.97
2023-04-30T06:02:51.084Z,3.10
2023-04-30T06:05:18.861Z,3.40
2023-04-30T06:07:47.642Z,3.00
2023-04-30T06:10:15.324Z,3.45
2023-04-30T06:12:43.393Z,3.70
2023-04-30T06:15:11.553Z,3.30
2023-04-30T06:17:39.363Z,3.15
2023-04-30T06:20:10.534Z,3.40
2023-04-30T06:22:38.272Z,3.45
2023-04-30T06:25:07.038Z,3.53
2023-04-30T06:27:35.686Z,3.70
2023-04-30T06:30:03.435Z,3.22
2023-04-30T06:32:31.712Z,3.40
2023-04-30T06:34:59.983Z,3.63
2023-04-30T06:37:29.835Z,3.35
2023-04-30T06:42:26.118Z,3.60
2023-04-30T06:44:55.364Z,3.50
2023-04-30T06:47:24.240Z,3.60
2023-04-30T06:49:52.511Z,3.63
2023-04-30T06:52:20.506Z,3.35
2023-04-30T06:54:49.896Z,4.00
2023-04-30T06:57:17.585Z,3.83
2023-04-30T06:59:45.619Z,3.60
2023-04-30T07:02:13.369Z,3.50
2023-04-30T07:04:41.113Z,4.10
2023-04-30T07:07:10.090Z,3.55
2023-04-30T07:09:37.811Z,3.30
2023-04-30T07:12:06.911Z,4.03
2023-04-30T07:14:35.022Z,3.60
2023-04-30T07:17:02.747Z,3.60
2023-04-30T07:19:30.838Z,3.40
2023-04-30T07:21:58.537Z,3.88
2023-04-30T07:24:26.861Z,3.58
2023-04-30T07:26:54.518Z,3.72
2023-04-30T07:29:23.574Z,3.33
2023-04-30T07:31:52.964Z,3.38
2023-04-30T07:34:20.741Z,3.70
2023-04-30T07:36:49.795Z,4.07
2023-04-30T07:39:17.841Z,4.05
2023-04-30T07:41:46.326Z,3.85
2023-04-30T07:44:14.058Z,3.33
2023-04-30T07:46:43.314Z,3.60
2023-04-30T07:49:11.887Z,3.60
2023-04-30T07:51:40.118Z,3.92
2023-04-30T07:54:07.853Z,3.40
2023-04-30T07:56:36.372Z,3.30
2023-04-30T07:59:04.138Z,3.75
2023-04-30T08:01:32.571Z,3.40
2023-04-30T08:04:01.661Z,3.15
2023-04-30T08:06:29.779Z,3.45
2023-04-30T08:08:57.578Z,3.70
2023-04-30T08:11:26.222Z,3.65
2023-04-30T08:13:53.935Z,3.47
2023-04-30T08:16:21.840Z,3.30
2023-04-30T08:18:49.711Z,3.08
2023-04-30T08:21:19.435Z,2.97
2023-04-30T08:23:47.199Z,3.10
2023-04-30T08:26:15.413Z,2.80
2023-04-30T08:28:43.234Z,2.85
2023-04-30T08:31:11.069Z,2.85
2023-04-30T08:33:39.689Z,3.28
2023-04-30T08:36:07.747Z,2.60
2023-04-30T08:38:37.293Z,3.47
2023-04-30T08:41:12.885Z,3.30
2023-04-30T08:43:41.697Z,3.50
2023-04-30T08:46:09.566Z,3.25
2023-04-30T08:48:38.711Z,3.67
2023-04-30T08:51:06.550Z,3.47
2023-04-30T08:53:38.622Z,2.92
2023-04-30T08:56:07.015Z,2.70
2023-04-30T08:58:34.665Z,2.80
2023-04-30T09:01:03.145Z,2.80
2023-04-30T09:03:32.140Z,3.10
2023-04-30T09:06:00.417Z,2.60
2023-04-30T09:08:45.320Z,2.20
2023-04-30T09:11:27.926Z,2.20
2023-04-30T09:13:57.351Z,2.30
2023-04-30T09:16:26.779Z,2.60
2023-04-30T09:18:55.155Z,2.50
2023-04-30T09:21:33.159Z,2.60
2023-04-30T09:24:04.035Z,1.92
2023-04-30T09:26:36.237Z,2.25
2023-04-30T09:29:08.978Z,2.10
2023-04-30T09:31:37.170Z,2.55
2023-04-30T09:34:06.057Z,2.15
2023-04-30T09:36:34.349Z,2.30
2023-04-30T09:39:14.746Z,2.22
2023-04-30T09:41:43.750Z,2.20
2023-04-30T09:44:29.666Z,2.35
2023-04-30T09:46:58.510Z,2.65
2023-04-30T09:49:27.253Z,2.75
2023-04-30T09:51:57.547Z,2.50
2023-04-30T09:54:30.194Z,2.53
2023-04-30T09:57:00.158Z,2.60
2023-04-30T09:59:31.794Z,2.47
2023-04-30T10:02:02.230Z,2.67
2023-04-30T10:04:33.305Z,2.15
2023-04-30T10:07:03.577Z,1.98
2023-04-30T10:09:39.969Z,2.20
2023-04-30T10:12:15.196Z,2.33
2023-04-30T10:14:49.553Z,2.20
2023-04-30T10:17:19.680Z,2.20
2023-04-30T10:19:50.505Z,2.20
2023-04-30T10:22:19.848Z,2.35
2023-04-30T10:24:49.718Z,2.13
2023-04-30T10:27:19.179Z,2.10
2023-04-30T10:29:48.671Z,1.98
2023-04-30T10:32:17.351Z,2.40
2023-04-30T10:34:53.015Z,2.42
2023-04-30T10:37:29.903Z,2.10
2023-04-30T10:39:59.036Z,1.98
2023-04-30T10:42:27.148Z,2.28
2023-04-30T10:44:56.749Z,2.50
2023-04-30T10:47:30.363Z,2.17
2023-04-30T10:50:03.953Z,2.50
2023-04-30T10:52:32.983Z,2.45
2023-04-30T10:55:05.966Z,2.00
2023-04-30T10:57:41.654Z,2.47
2023-04-30T11:00:26.932Z,2.10
2023-04-30T11:02:58.599Z,2.15
2023-04-30T11:05:38.729Z,2.10
2023-04-30T11:08:07.424Z,2.30
2023-04-30T11:10:36.949Z,2.13
2023-04-30T11:13:07.235Z,2.08
2023-04-30T11:15:42.013Z,2.38
2023-04-30T11:18:10.461Z,2.40
2023-04-30T11:20:41.864Z,2.20
2023-04-30T11:23:11.006Z,2.17
2023-04-30T11:25:44.715Z,1.95
2023-04-30T11:28:16.603Z,1.92
2023-04-30T11:30:53.904Z,1.73
2023-04-30T11:33:22.801Z,2.38
2023-04-30T11:35:53.304Z,2.10
2023-04-30T11:38:23.341Z,1.92
2023-04-30T11:40:52.548Z,1.88
2023-04-30T11:43:25.352Z,2.33
2023-04-30T11:46:05.628Z,2.40
2023-04-30T11:48:35.552Z,2.40
2023-04-30T11:51:14.944Z,2.30
2023-04-30T11:53:43.358Z,2.13
2023-04-30T11:56:12.499Z,2.30
2023-04-30T11:58:40.481Z,2.25
2023-04-30T12:01:10.019Z,2.08
2023-04-30T12:03:45.955Z,2.22
2023-04-30T12:06:14.513Z,2.42
2023-04-30T12:08:43.239Z,2.10
2023-04-30T12:11:32.520Z,2.15
2023-04-30T12:14:03.737Z,2.25
2023-04-30T12:16:42.190Z,1.83
2023-04-30T12:19:10.567Z,2.50
2023-04-30T12:21:39.087Z,2.42
2023-04-30T12:24:07.537Z,2.20
2023-04-30T12:26:40.215Z,2.55
2023-04-30T12:29:14.250Z,2.00
2023-04-30T12:31:43.526Z,2.47
2023-04-30T12:34:14.318Z,2.42
2023-04-30T12:36:43.452Z,1.90
2023-04-30T12:39:13.199Z,2.20
2023-04-30T12:41:43.963Z,2.33
2023-04-30T12:44:15.623Z,2.30
2023-04-30T12:46:44.354Z,2.40
2023-04-30T12:49:12.355Z,2.40
2023-04-30T12:51:44.994Z,2.15
2023-04-30T12:54:12.722Z,2.38
2023-04-30T12:56:57.872Z,2.50
2023-04-30T12:59:25.556Z,2.33
2023-04-30T13:01:54.579Z,2.30
2023-04-30T13:04:22.310Z,2.10
2023-04-30T13:06:50.736Z,2.22
2023-04-30T13:09:18.432Z,1.95
2023-04-30T13:11:48.745Z,2.50
2023-04-30T13:14:17.975Z,2.22
2023-04-30T13:16:46.068Z,2.25
2023-04-30T13:19:13.777Z,2.17
2023-04-30T13:21:42.180Z,2.25
2023-04-30T13:24:10.161Z,2.08
2023-04-30T13:26:38.137Z,1.83
2023-04-30T13:29:07.809Z,2.03
2023-04-30T13:31:36.316Z,2.50
2023-04-30T13:34:04.157Z,1.95
2023-04-30T13:36:34.007Z,2.35
2023-04-30T13:39:01.655Z,2.50
2023-04-30T13:41:29.677Z,2.00
2023-04-30T13:43:57.624Z,2.30
2023-04-30T13:46:27.074Z,2.35
2023-04-30T13:48:55.128Z,2.33
2023-04-30T13:51:22.817Z,2.00
2023-04-30T13:53:51.641Z,2.20
2023-04-30T13:56:19.372Z,1.80
2023-04-30T13:58:47.600Z,2.10
2023-04-30T14:01:15.939Z,1.73
2023-04-30T14:03:46.976Z,2.20
2023-04-30T14:06:14.807Z,1.95
2023-04-30T14:08:42.573Z,1.92
2023-04-30T14:13:56.713Z,2.00
2023-04-30T14:16:24.629Z,1.80
2023-04-30T14:18:54.060Z,3.53
2023-04-30T14:21:21.771Z,2.50
2023-04-30T14:23:49.720Z,1.90
2023-04-30T14:26:17.467Z,1.60
2023-04-30T14:28:45.569Z,2.38
2023-04-30T14:31:13.268Z,2.00
2023-04-30T14:33:42.032Z,1.70
2023-04-30T14:36:11.183Z,2.10
2023-04-30T14:38:38.988Z,1.98
2023-04-30T14:41:07.117Z,2.15
2023-04-30T14:43:35.220Z,1.73
2023-04-30T14:46:03.395Z,1.92
2023-04-30T14:48:31.638Z,1.92
2023-04-30T14:50:59.325Z,1.83
2023-04-30T14:53:28.415Z,2.05
2023-04-30T14:55:57.171Z,1.80
2023-04-30T14:58:25.633Z,1.98
2023-04-30T15:00:53.378Z,1.77
2023-04-30T15:03:21.246Z,1.95
2023-04-30T15:05:50.248Z,1.70
2023-04-30T15:08:17.976Z,2.13
2023-04-30T15:10:47.076Z,1.90
2023-04-30T15:13:15.903Z,1.80
2023-04-30T15:15:43.637Z,1.75
2023-04-30T15:18:11.374Z,2.30
2023-04-30T15:20:39.529Z,2.45
2023-04-30T15:23:08.121Z,1.75
2023-04-30T15:25:35.837Z,2.40
2023-04-30T15:28:05.331Z,1.83
2023-04-30T15:30:33.032Z,1.70
2023-04-30T15:33:00.667Z,2.08
2023-04-30T15:35:29.670Z,1.45
2023-04-30T15:37:57.402Z,1.90
2023-04-30T15:40:25.261Z,1.95
2023-04-30T15:42:53.334Z,1.63
2023-04-30T15:45:25.200Z,1.85
2023-04-30T15:47:53.566Z,1.95
2023-04-30T15:50:21.341Z,1.80
2023-04-30T15:52:50.193Z,1.80
2023-04-30T15:55:18.334Z,1.52
2023-04-30T15:57:46.596Z,1.60
2023-04-30T16:00:15.631Z,1.60
2023-04-30T16:02:44.978Z,1.73
2023-04-30T16:05:12.823Z,1.60
2023-04-30T16:07:43.722Z,1.80
2023-04-30T16:10:12.959Z,1.50
2023-04-30T16:12:42.221Z,1.48
2023-04-30T16:15:11.710Z,2.03
2023-04-30T16:17:39.847Z,1.75
2023-04-30T16:20:10.408Z,1.60
2023-04-30T16:25:09.817Z,1.58
2023-04-30T16:27:37.826Z,1.75
2023-04-30T16:30:06.684Z,2.20
2023-04-30T16:32:35.635Z,1.80
2023-04-30T16:35:03.268Z,1.90
2023-04-30T16:37:32.438Z,1.70
2023-04-30T16:40:01.848Z,1.40
2023-04-30T16:42:29.970Z,1.95
2023-04-30T16:44:58.214Z,1.75
2023-04-30T16:47:26.013Z,1.63
2023-04-30T16:49:54.404Z,2.17
2023-04-30T16:52:23.278Z,2.10
2023-04-30T16:54:52.376Z,2.13
2023-04-30T16:57:20.084Z,1.80
2023-04-30T16:59:49.025Z,1.83
2023-04-30T17:02:16.735Z,1.73
2023-04-30T17:04:44.598Z,1.70
2023-04-30T17:07:13.028Z,1.88
2023-04-30T17:09:41.623Z,2.00
2023-04-30T17:12:12.156Z,1.75
2023-04-30T17:17:08.119Z,1.90
2023-04-30T17:19:35.839Z,1.77
2023-04-30T17:22:04.067Z,1.77
2023-04-30T17:24:31.828Z,1.95
2023-04-30T17:27:00.871Z,2.00
2023-04-30T17:29:30.292Z,2.45
2023-04-30T17:31:58.024Z,2.05
2023-04-30T17:34:27.896Z,2.13
2023-04-30T17:36:55.691Z,1.90
2023-04-30T17:39:23.940Z,1.70
2023-04-30T17:41:52.153Z,2.15
2023-04-30T17:44:19.870Z,1.95
2023-04-30T17:46:49.517Z,2.30
2023-04-30T17:49:17.764Z,2.07
2023-04-30T17:51:45.538Z,1.80
2023-04-30T17:54:13.826Z,1.85
2023-04-30T17:56:42.188Z,1.92
2023-04-30T17:59:10.222Z,1.98
2023-04-30T18:01:38.359Z,2.20
2023-04-30T18:04:10.645Z,2.78
2023-04-30T18:06:38.773Z,3.40
2023-04-30T18:09:06.605Z,3.53
2023-04-30T18:11:34.787Z,3.50
2023-04-30T18:14:02.628Z,3.20
2023-04-30T18:16:31.551Z,3.67
2023-04-30T18:18:59.323Z,4.15
2023-04-30T18:21:28.454Z,4.68
2023-04-30T18:23:57.069Z,4.45
2023-04-30T18:26:25.241Z,4.85
2023-04-30T18:28:53.526Z,4.35
2023-04-30T18:31:21.791Z,4.35
2023-04-30T18:33:49.550Z,4.03
2023-04-30T18:36:17.338Z,4.13
2023-04-30T18:38:47.702Z,3.53
2023-04-30T18:41:15.346Z,3.80
2023-04-30T18:43:45.282Z,3.53
2023-04-30T18:46:13.446Z,2.97
2023-04-30T18:48:41.117Z,3.22
2023-04-30T18:51:09.205Z,3.33
2023-04-30T18:53:37.181Z,3.72
2023-04-30T18:56:08.715Z,3.38
2023-04-30T18:58:36.386Z,3.30
2023-04-30T19:01:04.321Z,4.07
2023-04-30T19:03:34.244Z,3.55
2023-04-30T19:06:02.738Z,3.97
2023-04-30T19:08:30.540Z,3.97
2023-04-30T19:10:58.231Z,4.25
2023-04-30T19:13:28.652Z,4.53
2023-04-30T19:15:56.419Z,5.32
2023-04-30T19:18:25.378Z,4.03
2023-04-30T19:21:00.274Z,3.67
2023-04-30T19:23:30.785Z,4.03
2023-04-30T19:28:27.899Z,3.40
2023-04-30T19:30:57.025Z,3.17
2023-04-30T19:33:25.739Z,3.28
2023-04-30T19:35:54.566Z,3.67
2023-04-30T19:38:24.134Z,3.53
2023-04-30T19:40:53.056Z,3.60
2023-04-30T19:43:20.971Z,4.05
2023-04-30T19:45:52.628Z,4.32
2023-04-30T19:48:21.252Z,3.80
2023-04-30T19:50:49.487Z,4.15
2023-04-30T19:53:19.539Z,4.22
2023-04-30T19:55:47.220Z,3.85
2023-04-30T19:58:15.330Z,4.15
2023-04-30T20:00:45.479Z,3.90
2023-04-30T20:03:15.666Z,4.40
2023-04-30T20:05:43.749Z,4.90
2023-04-30T20:08:11.996Z,4.32
2023-04-30T20:10:40.936Z,4.85
2023-04-30T20:13:10.163Z,4.63
2023-04-30T20:15:39.023Z,3.75
2023-04-30T20:18:06.798Z,3.97
2023-04-30T20:20:36.664Z,4.30
2023-04-30T20:23:13.808Z,4.10
2023-04-30T20:25:43.995Z,3.80
2023-04-30T20:28:11.972Z,4.20
2023-04-30T20:30:42.836Z,3.67
2023-04-30T20:33:11.840Z,3.75
2023-04-30T20:35:42.248Z,3.80
2023-04-30T20:38:10.744Z,3.95
2023-04-30T20:40:40.555Z,3.30
2023-04-30T20:43:10.264Z,3.53
2023-04-30T20:45:38.703Z,3.87
2023-04-30T20:48:08.500Z,4.07
2023-04-30T20:50:36.972Z,2.97
2023-04-30T20:53:06.044Z,3.40
2023-04-30T20:55:34.989Z,3.72
2023-04-30T20:58:03.666Z,4.00
2023-04-30T21:00:32.042Z,4.03
2023-04-30T21:03:00.188Z,4.00
2023-04-30T21:05:29.997Z,3.80
2023-04-30T21:08:01.590Z,4.10
2023-04-30T21:10:35.344Z,3.67
2023-04-30T21:13:05.789Z,4.30
2023-04-30T21:15:36.690Z,3.63
2023-04-30T21:20:33.148Z,3.30
2023-04-30T21:23:03.570Z,3.80
2023-04-30T21:25:32.580Z,3.85
2023-04-30T21:28:00.650Z,3.58
2023-04-30T21:30:28.612Z,3.97
2023-04-30T21:32:59.202Z,3.47
2023-04-30T21:35:27.718Z,3.83
2023-04-30T21:37:56.983Z,4.28
2023-04-30T21:40:24.691Z,4.00
2023-04-30T21:42:54.138Z,3.90
2023-04-30T21:45:22.222Z,3.78
2023-04-30T21:47:50.336Z,4.15
2023-04-30T21:50:18.588Z,4.18
2023-04-30T21:52:46.238Z,4.40
2023-04-30T21:55:13.992Z,4.07
2023-04-30T21:57:42.905Z,3.85
2023-04-30T22:00:14.429Z,4.28
2023-04-30T22:02:42.769Z,4.78
2023-04-30T22:05:11.444Z,4.82
2023-04-30T22:07:39.247Z,4.55
2023-04-30T22:10:08.564Z,5.03
2023-04-30T22:12:36.613Z,4.68
2023-04-30T22:15:05.752Z,5.53
2023-04-30T22:17:36.469Z,5.25
2023-04-30T22:20:04.873Z,5.00
2023-04-30T22:22:33.004Z,5.40
2023-04-30T22:25:01.159Z,4.60
2023-04-30T22:27:28.842Z,5.70
2023-04-30T22:29:56.697Z,4.88
2023-04-30T22:32:25.280Z,5.05
2023-04-30T22:34:54.422Z,5.90
2023-04-30T22:37:22.195Z,5.10
2023-04-30T22:39:50.925Z,5.20
2023-04-30T22:42:18.727Z,5.05
2023-04-30T22:44:46.782Z,5.65
2023-04-30T22:47:14.918Z,5.15
2023-04-30T22:49:42.923Z,5.45
2023-04-30T22:52:12.050Z,5.78
2023-04-30T22:54:41.466Z,5.45
2023-04-30T22:57:09.226Z,5.22
2023-04-30T22:59:37.248Z,5.28
2023-04-30T23:02:04.997Z,5.35
2023-04-30T23:04:34.154Z,5.45
2023-04-30T23:07:01.936Z,5.90
2023-04-30T23:09:31.262Z,5.78
2023-04-30T23:11:58.941Z,6.07
2023-04-30T23:14:27.886Z,6.35
2023-04-30T23:16:55.662Z,6.57
2023-04-30T23:19:23.483Z,5.97
2023-04-30T23:21:52.162Z,5.88
2023-04-30T23:24:20.192Z,5.90
2023-04-30T23:26:49.297Z,5.63
2023-04-30T23:29:17.299Z,5.47
2023-04-30T23:31:44.993Z,5.00
2023-04-30T23:34:13.027Z,4.93
2023-04-30T23:36:40.758Z,4.93
2023-04-30T23:39:11.002Z,5.25
2023-04-30T23:41:38.789Z,4.43
2023-04-30T23:44:07.971Z,4.80
2023-04-30T23:46:36.325Z,4.57
2023-04-30T23:49:04.082Z,4.13
2023-04-30T23:51:33.346Z,4.55
2023-04-30T23:54:01.461Z,4.15
2023-04-30T23:56:29.485Z,4.13
2023-04-30T23:58:57.209Z,4.70
